Lake Emma, Minnesota
Current Conditions -  °F | °C
As of 6:53 AM on Sunday 21 Dec 2014 (Local Time) from KPKD Reporting Station
Haze Haze  
Wind Chill: 20°   Ceiling: 400
Heat Index: 30°   Visibility: 5mi
Dew Point: 28°   Wind: 14mph
Humidity: 92%   Direction: 170°S
Pressure: 29.79"   Gusts: NA
Location:  46.9966°N, 95.0029°W
Report Text: KPKD 211253Z AUTO 17012KT 5SM BR OVC004 M01/M02 A2979 RMK AO2 SLP107 T10111022
Loading
Personal Weather Stations






























Interactive Weather Map New forecast layout! Learn more

10-Day Weather Forecast

Advertisements
Track Severe Weather on mobile